createdAt,value
2023-02-20T00:00:41.283Z,8.13
2023-02-20T00:03:07.869Z,7.93
2023-02-20T00:05:34.441Z,8.23
2023-02-20T00:08:00.978Z,7.17
2023-02-20T00:10:27.698Z,7.27
2023-02-20T00:12:54.270Z,8.00
2023-02-20T00:15:20.924Z,6.70
2023-02-20T00:17:47.582Z,7.17
2023-02-20T00:20:14.705Z,8.17
2023-02-20T00:22:41.225Z,7.43
2023-02-20T00:25:07.856Z,7.37
2023-02-20T00:27:34.316Z,6.43
2023-02-20T00:30:00.852Z,7.37
2023-02-20T00:32:27.337Z,8.50
2023-02-20T00:34:53.837Z,7.67
2023-02-20T00:37:20.347Z,7.90
2023-02-20T00:39:46.865Z,7.40
2023-02-20T00:42:13.375Z,6.70
2023-02-20T00:44:39.851Z,6.40
2023-02-20T00:47:06.370Z,7.03
2023-02-20T00:49:32.855Z,7.17
2023-02-20T00:51:59.379Z,6.47
2023-02-20T00:54:25.888Z,6.87
2023-02-20T00:56:52.356Z,6.03
2023-02-20T00:59:18.851Z,6.77
2023-02-20T01:01:45.367Z,7.73
2023-02-20T01:04:11.936Z,7.40
2023-02-20T01:06:38.464Z,6.57
2023-02-20T01:09:04.934Z,6.73
2023-02-20T01:11:31.472Z,6.33
2023-02-20T01:13:58.024Z,5.37
2023-02-20T01:16:24.558Z,5.40
2023-02-20T01:18:51.695Z,5.83
2023-02-20T01:21:18.182Z,5.33
2023-02-20T01:23:44.687Z,5.73
2023-02-20T01:26:11.438Z,5.97
2023-02-20T01:28:38.173Z,4.93
2023-02-20T01:31:04.760Z,5.33
2023-02-20T01:33:31.271Z,4.83
2023-02-20T01:35:57.834Z,4.47
2023-02-20T01:38:24.321Z,4.73
2023-02-20T01:40:50.838Z,4.50
2023-02-20T01:43:17.436Z,5.23
2023-02-20T01:45:43.992Z,5.43
2023-02-20T01:48:20.598Z,4.70
2023-02-20T01:50:47.101Z,5.20
2023-02-20T01:53:18.360Z,4.43
2023-02-20T01:56:05.113Z,4.67
2023-02-20T01:58:32.224Z,4.93
2023-02-20T02:00:58.903Z,4.73
2023-02-20T02:03:26.484Z,4.93
2023-02-20T02:05:54.044Z,4.03
2023-02-20T02:08:21.314Z,5.27
2023-02-20T02:11:00.124Z,4.87
2023-02-20T02:13:26.784Z,4.60
2023-02-20T02:15:53.746Z,4.60
2023-02-20T02:18:26.389Z,5.10
2023-02-20T02:20:56.029Z,4.90
2023-02-20T02:23:25.259Z,4.77
2023-02-20T02:25:51.716Z,4.83
2023-02-20T02:28:18.226Z,4.70
2023-02-20T02:30:44.700Z,4.70
2023-02-20T02:33:14.034Z,4.97
2023-02-20T02:36:00.765Z,4.60
2023-02-20T02:38:30.274Z,4.00
2023-02-20T02:41:05.889Z,3.97
2023-02-20T02:43:37.816Z,4.30
2023-02-20T02:46:08.362Z,4.13
2023-02-20T02:48:40.381Z,3.90
2023-02-20T02:51:08.827Z,4.13
2023-02-20T02:53:35.326Z,2.97
2023-02-20T02:56:21.532Z,4.33
2023-02-20T02:58:48.539Z,3.80
2023-02-20T03:01:15.039Z,3.40
2023-02-20T03:03:41.590Z,3.60
2023-02-20T03:06:11.717Z,3.17
2023-02-20T03:08:38.388Z,3.83
2023-02-20T03:11:09.319Z,3.20
2023-02-20T03:13:56.409Z,3.53
2023-02-20T03:16:23.512Z,3.70
2023-02-20T03:18:49.981Z,3.03
2023-02-20T03:21:17.792Z,3.47
2023-02-20T03:23:44.932Z,3.30
2023-02-20T03:26:18.846Z,2.60
2023-02-20T03:28:59.169Z,3.20
2023-02-20T03:31:28.005Z,2.70
2023-02-20T03:34:32.906Z,2.37
2023-02-20T03:37:19.609Z,2.80
2023-02-20T03:40:06.321Z,2.20
2023-02-20T03:42:52.492Z,2.53
2023-02-20T03:45:19.037Z,3.30
2023-02-20T03:47:45.725Z,2.67
2023-02-20T03:50:30.962Z,2.33
2023-02-20T03:52:57.488Z,2.87
2023-02-20T03:55:24.696Z,2.30
2023-02-20T03:57:52.606Z,3.10
2023-02-20T04:00:22.962Z,2.70
2023-02-20T04:02:50.754Z,3.17
2023-02-20T04:05:19.505Z,3.37
2023-02-20T04:07:47.915Z,3.30
2023-02-20T04:10:15.624Z,3.07
2023-02-20T04:12:42.934Z,3.97
2023-02-20T04:15:09.445Z,3.93
2023-02-20T04:17:41.797Z,4.53
2023-02-20T04:20:08.587Z,3.80
2023-02-20T04:22:37.747Z,4.10
2023-02-20T04:25:27.579Z,4.33
2023-02-20T04:27:54.062Z,4.63
2023-02-20T04:30:20.666Z,4.93
2023-02-20T04:32:47.186Z,4.53
2023-02-20T04:35:18.280Z,4.20
2023-02-20T04:37:44.735Z,3.23
2023-02-20T04:40:11.686Z,3.30
2023-02-20T04:42:38.291Z,3.53
2023-02-20T04:45:05.097Z,3.80
2023-02-20T04:47:31.606Z,3.30
2023-02-20T04:49:58.241Z,3.90
2023-02-20T04:52:24.882Z,4.67
2023-02-20T04:54:51.417Z,4.90
2023-02-20T04:57:18.464Z,5.00
2023-02-20T04:59:45.000Z,4.87
2023-02-20T05:02:11.677Z,5.30
2023-02-20T05:04:38.405Z,4.97
2023-02-20T05:07:05.348Z,5.03
2023-02-20T05:09:32.308Z,5.17
2023-02-20T05:11:58.810Z,4.47
2023-02-20T05:14:25.310Z,4.93
2023-02-20T05:16:51.911Z,4.77
2023-02-20T05:19:18.434Z,5.10
2023-02-20T05:22:03.722Z,5.03
2023-02-20T05:24:30.576Z,5.27
2023-02-20T05:26:57.126Z,6.07
2023-02-20T05:29:23.638Z,6.23
2023-02-20T05:31:50.282Z,6.70
2023-02-20T05:34:17.013Z,6.93
2023-02-20T05:36:43.523Z,8.43
2023-02-20T05:39:10.010Z,7.73
2023-02-20T05:41:36.557Z,8.17
2023-02-20T05:44:03.096Z,7.97
2023-02-20T05:46:29.716Z,8.00
2023-02-20T05:48:56.372Z,8.63
2023-02-20T05:51:26.858Z,8.67
2023-02-20T05:53:53.337Z,8.23
2023-02-20T05:56:19.908Z,7.57
2023-02-20T05:58:46.670Z,7.27
2023-02-20T06:01:31.579Z,8.40
2023-02-20T06:03:58.394Z,7.03
2023-02-20T06:06:24.957Z,5.43
2023-02-20T06:08:51.795Z,6.03
2023-02-20T06:11:18.329Z,5.33
2023-02-20T06:13:45.127Z,5.70
2023-02-20T06:16:11.981Z,5.43
2023-02-20T06:18:42.030Z,5.27
2023-02-20T06:21:09.215Z,6.10
2023-02-20T06:23:36.589Z,5.53
2023-02-20T06:26:03.122Z,4.73
2023-02-20T06:28:29.723Z,4.00
2023-02-20T06:30:56.307Z,4.73
2023-02-20T06:33:22.840Z,5.07
2023-02-20T06:35:49.374Z,4.50
2023-02-20T06:38:16.069Z,5.37
2023-02-20T06:40:43.003Z,5.70
2023-02-20T06:43:09.530Z,4.67
2023-02-20T06:45:36.079Z,5.33
2023-02-20T06:48:03.255Z,5.07
2023-02-20T06:50:29.753Z,5.80
2023-02-20T06:52:56.493Z,5.73
2023-02-20T06:55:23.022Z,5.60
2023-02-20T06:57:49.637Z,5.60
2023-02-20T07:00:16.492Z,6.63
2023-02-20T07:02:43.068Z,5.40
2023-02-20T07:05:10.425Z,5.30
2023-02-20T07:07:36.937Z,6.20
2023-02-20T07:10:05.918Z,6.17
2023-02-20T07:12:32.546Z,4.80
2023-02-20T07:14:59.212Z,5.30
2023-02-20T07:17:25.911Z,5.03
2023-02-20T07:19:52.414Z,5.30
2023-02-20T07:22:18.905Z,5.33
2023-02-20T07:24:49.679Z,5.60
2023-02-20T07:27:16.478Z,5.83
2023-02-20T07:29:45.861Z,5.27
2023-02-20T07:32:12.729Z,5.30
2023-02-20T07:34:39.392Z,4.50
2023-02-20T07:37:05.961Z,4.50
2023-02-20T07:39:32.482Z,4.10
2023-02-20T07:41:59.341Z,4.70
2023-02-20T07:44:25.830Z,4.23
2023-02-20T07:46:52.356Z,4.30
2023-02-20T07:49:18.864Z,4.63
2023-02-20T07:51:45.432Z,3.90
2023-02-20T07:54:11.920Z,4.00
2023-02-20T07:56:40.129Z,4.73
2023-02-20T07:59:06.778Z,5.03
2023-02-20T08:01:33.403Z,4.40
2023-02-20T08:03:59.946Z,4.37
2023-02-20T08:06:26.450Z,5.87
2023-02-20T08:08:53.027Z,6.13
2023-02-20T08:11:19.666Z,7.00
2023-02-20T08:13:46.208Z,6.60
2023-02-20T08:16:13.057Z,5.80
2023-02-20T08:18:39.778Z,6.33
2023-02-20T08:21:06.237Z,6.10
2023-02-20T08:23:32.775Z,6.40
2023-02-20T08:26:00.307Z,6.00
2023-02-20T08:28:26.885Z,6.30
2023-02-20T08:30:53.382Z,5.53
2023-02-20T08:33:20.004Z,6.00
2023-02-20T08:35:48.632Z,6.27
2023-02-20T08:38:25.555Z,5.67
2023-02-20T08:40:52.307Z,6.00
2023-02-20T08:43:18.775Z,6.43
2023-02-20T08:45:45.383Z,7.70
2023-02-20T08:48:12.022Z,6.37
2023-02-20T08:50:38.569Z,5.93
2023-02-20T08:53:05.129Z,6.20
2023-02-20T08:55:31.643Z,6.63
2023-02-20T08:57:58.162Z,6.23
2023-02-20T09:00:24.724Z,6.83
2023-02-20T09:02:51.332Z,7.43
2023-02-20T09:05:18.089Z,6.83
2023-02-20T09:07:45.435Z,7.00
2023-02-20T09:10:11.936Z,7.07
2023-02-20T09:12:42.049Z,7.60
2023-02-20T09:15:11.944Z,7.20
2023-02-20T09:17:38.813Z,7.53
2023-02-20T09:20:09.958Z,7.23
2023-02-20T09:22:36.978Z,6.30
2023-02-20T09:25:03.435Z,6.50
2023-02-20T09:27:29.946Z,6.63
2023-02-20T09:29:56.458Z,6.63
2023-02-20T09:32:23.166Z,6.70
2023-02-20T09:34:49.799Z,6.67
2023-02-20T09:37:16.377Z,6.27
2023-02-20T09:39:42.905Z,5.93
2023-02-20T09:42:21.692Z,6.53
2023-02-20T09:45:07.274Z,6.70
2023-02-20T09:47:39.842Z,6.63
2023-02-20T09:50:07.249Z,6.87
2023-02-20T09:52:34.605Z,5.90
2023-02-20T09:55:05.899Z,7.10
2023-02-20T09:57:32.953Z,5.87
2023-02-20T10:00:17.507Z,6.23
2023-02-20T10:02:51.350Z,5.80
2023-02-20T10:05:25.171Z,5.23
2023-02-20T10:07:51.704Z,5.53
2023-02-20T10:10:18.330Z,5.93
2023-02-20T10:12:45.645Z,5.03
2023-02-20T10:15:21.459Z,4.60
2023-02-20T10:17:48.244Z,4.13
2023-02-20T10:20:17.838Z,4.80
2023-02-20T10:22:57.049Z,4.97
2023-02-20T10:25:26.040Z,4.13
2023-02-20T10:28:11.922Z,4.60
2023-02-20T10:30:43.009Z,4.27
2023-02-20T10:33:09.487Z,4.27
2023-02-20T10:36:08.618Z,4.83
2023-02-20T10:38:36.758Z,4.07
2023-02-20T10:41:08.108Z,4.10
2023-02-20T10:44:00.898Z,4.07
2023-02-20T10:46:39.850Z,4.10
2023-02-20T10:49:24.866Z,3.77
2023-02-20T10:51:51.843Z,3.73
2023-02-20T10:54:36.716Z,3.97
2023-02-20T10:57:05.204Z,3.70
2023-02-20T10:59:31.649Z,3.80
2023-02-20T11:01:58.624Z,4.00
2023-02-20T11:04:33.145Z,3.47
2023-02-20T11:07:02.304Z,3.90
2023-02-20T11:09:29.081Z,3.93
2023-02-20T11:11:55.576Z,3.63
2023-02-20T11:14:38.891Z,4.17
2023-02-20T11:17:10.260Z,4.53
2023-02-20T11:19:46.043Z,4.23
2023-02-20T11:22:12.716Z,4.43
2023-02-20T11:24:39.817Z,5.07
2023-02-20T11:27:09.324Z,4.93
2023-02-20T11:29:37.778Z,5.07
2023-02-20T11:32:23.405Z,4.03
2023-02-20T11:35:02.532Z,5.53
2023-02-20T11:37:29.038Z,5.93
2023-02-20T11:39:55.549Z,5.73
2023-02-20T11:42:22.071Z,5.23
2023-02-20T11:45:05.719Z,5.83
2023-02-20T11:47:32.251Z,5.93
2023-02-20T11:50:18.967Z,6.50
2023-02-20T11:52:55.702Z,6.17
2023-02-20T11:55:23.391Z,6.43
2023-02-20T11:57:50.141Z,6.67
2023-02-20T12:00:20.082Z,7.17
2023-02-20T12:02:56.662Z,7.20
2023-02-20T12:05:43.663Z,7.40
2023-02-20T12:08:22.532Z,7.87
2023-02-20T12:10:49.197Z,8.57
2023-02-20T12:13:16.465Z,7.97
2023-02-20T12:15:43.754Z,8.83
2023-02-20T12:18:13.859Z,9.13
2023-02-20T12:20:44.513Z,7.70
2023-02-20T12:23:11.008Z,8.30
2023-02-20T12:25:40.616Z,7.83
2023-02-20T12:28:16.506Z,8.00
2023-02-20T12:31:01.818Z,7.97
2023-02-20T12:33:40.828Z,8.23
2023-02-20T12:36:25.703Z,8.83
2023-02-20T12:38:58.314Z,7.77
2023-02-20T12:41:33.740Z,8.43
2023-02-20T12:44:13.287Z,8.03
2023-02-20T12:46:52.504Z,7.00
2023-02-20T12:49:37.823Z,5.90
2023-02-20T12:52:07.652Z,7.03
2023-02-20T12:54:39.713Z,6.33
2023-02-20T12:57:07.767Z,6.13
2023-02-20T12:59:35.840Z,6.90
2023-02-20T13:02:35.743Z,6.83
2023-02-20T13:05:06.727Z,6.47
2023-02-20T13:07:36.253Z,6.77
2023-02-20T13:10:12.048Z,5.87
2023-02-20T13:12:38.674Z,7.10
2023-02-20T13:15:08.238Z,6.00
2023-02-20T13:17:43.076Z,5.67
2023-02-20T13:20:24.890Z,6.87
2023-02-20T13:23:25.947Z,6.27
2023-02-20T13:25:52.824Z,6.10
2023-02-20T13:28:22.485Z,6.73
2023-02-20T13:31:07.948Z,6.57
2023-02-20T13:33:36.456Z,6.00
2023-02-20T13:36:03.647Z,6.83
2023-02-20T13:38:30.341Z,6.33
2023-02-20T13:40:56.853Z,6.30
2023-02-20T13:43:23.372Z,5.90
2023-02-20T13:45:50.372Z,6.27
2023-02-20T13:48:20.785Z,6.50
2023-02-20T13:50:47.314Z,5.93
2023-02-20T13:53:13.824Z,7.27
2023-02-20T13:55:41.051Z,6.50
2023-02-20T13:58:12.282Z,6.63
2023-02-20T14:00:42.458Z,6.33
2023-02-20T14:03:17.997Z,6.73
2023-02-20T14:05:44.738Z,6.40
2023-02-20T14:08:20.720Z,6.07
2023-02-20T14:10:49.695Z,5.63
2023-02-20T14:13:30.899Z,6.30
2023-02-20T14:16:04.784Z,6.93
2023-02-20T14:18:32.107Z,6.10
2023-02-20T14:21:19.277Z,6.83
2023-02-20T14:23:46.234Z,7.33
2023-02-20T14:26:22.014Z,6.67
2023-02-20T14:28:49.554Z,6.43
2023-02-20T14:31:21.233Z,5.83
2023-02-20T14:33:48.518Z,6.70
2023-02-20T14:36:33.985Z,5.97
2023-02-20T14:39:20.793Z,6.70
2023-02-20T14:41:57.110Z,6.17
2023-02-20T14:44:24.406Z,5.63
2023-02-20T14:46:51.860Z,6.57
2023-02-20T14:49:25.328Z,6.13
2023-02-20T14:51:52.028Z,7.00
2023-02-20T14:54:20.088Z,6.77
2023-02-20T14:56:46.734Z,6.50
2023-02-20T14:59:26.212Z,6.30
2023-02-20T15:01:53.671Z,7.43
2023-02-20T15:04:20.256Z,6.93
2023-02-20T15:06:47.494Z,5.90
2023-02-20T15:09:22.284Z,6.87
2023-02-20T15:11:53.317Z,6.30
2023-02-20T15:14:20.858Z,5.97
2023-02-20T15:16:47.466Z,6.13
2023-02-20T15:19:21.406Z,4.93
2023-02-20T15:21:55.218Z,5.00
2023-02-20T15:24:27.952Z,6.37
2023-02-20T15:26:54.515Z,5.90
2023-02-20T15:29:28.086Z,5.10
2023-02-20T15:32:02.014Z,4.83
2023-02-20T15:34:34.298Z,5.03
2023-02-20T15:37:00.897Z,5.47
2023-02-20T15:39:27.700Z,4.57
2023-02-20T15:44:22.358Z,4.60
2023-02-20T15:46:48.912Z,3.70
2023-02-20T15:49:20.472Z,3.80
2023-02-20T15:51:47.493Z,2.90
2023-02-20T15:54:15.327Z,3.17
2023-02-20T15:56:41.881Z,3.10
2023-02-20T15:59:09.165Z,3.30
2023-02-20T16:01:35.729Z,2.87
2023-02-20T16:04:02.305Z,3.10
2023-02-20T16:06:29.020Z,3.47
2023-02-20T16:08:55.553Z,3.90
2023-02-20T16:11:23.438Z,4.00
2023-02-20T16:13:52.562Z,3.70
2023-02-20T16:16:24.468Z,4.03
2023-02-20T16:18:54.791Z,3.20
2023-02-20T16:21:21.713Z,3.77
2023-02-20T16:23:50.256Z,3.40
2023-02-20T16:26:17.434Z,3.37
2023-02-20T16:28:43.957Z,2.60
2023-02-20T16:31:11.951Z,3.00
2023-02-20T16:33:38.575Z,3.13
2023-02-20T16:36:05.514Z,3.40
2023-02-20T16:38:33.488Z,3.00
2023-02-20T16:41:03.505Z,3.00
2023-02-20T16:43:30.854Z,2.97
2023-02-20T16:45:57.339Z,3.20
2023-02-20T16:48:23.853Z,3.13
2023-02-20T16:50:51.398Z,3.33
2023-02-20T16:53:17.917Z,3.60
2023-02-20T16:55:45.113Z,2.70
2023-02-20T16:58:11.707Z,3.77
2023-02-20T17:00:55.034Z,3.33
2023-02-20T17:03:23.000Z,2.93
2023-02-20T17:05:49.574Z,3.63
2023-02-20T17:08:16.070Z,4.30
2023-02-20T17:10:42.718Z,3.60
2023-02-20T17:13:09.236Z,3.17
2023-02-20T17:15:37.599Z,3.30
2023-02-20T17:18:04.457Z,3.13
2023-02-20T17:20:31.162Z,3.63
2023-02-20T17:23:04.619Z,3.60
2023-02-20T17:25:31.875Z,2.93
2023-02-20T17:27:58.401Z,2.30
2023-02-20T17:30:25.139Z,3.20
2023-02-20T17:32:51.689Z,2.73
2023-02-20T17:35:18.298Z,3.03
2023-02-20T17:37:44.850Z,3.53
2023-02-20T17:40:12.086Z,2.77
2023-02-20T17:42:38.629Z,2.73
2023-02-20T17:45:05.321Z,3.07
2023-02-20T17:47:33.408Z,2.87
2023-02-20T17:49:59.933Z,3.57
2023-02-20T17:52:26.615Z,2.80
2023-02-20T17:54:55.558Z,3.27
2023-02-20T17:57:22.370Z,3.60
2023-02-20T17:59:52.004Z,3.17
2023-02-20T18:02:18.756Z,3.37
2023-02-20T18:04:45.297Z,2.77
2023-02-20T18:07:11.939Z,2.90
2023-02-20T18:09:38.732Z,2.93
2023-02-20T18:12:05.925Z,2.50
2023-02-20T18:14:32.426Z,2.80
2023-02-20T18:16:59.040Z,2.33
2023-02-20T18:19:25.595Z,2.53
2023-02-20T18:21:52.958Z,2.70
2023-02-20T18:24:22.927Z,2.60
2023-02-20T18:26:50.723Z,2.77
2023-02-20T18:29:17.249Z,3.10
2023-02-20T18:31:43.891Z,3.80
2023-02-20T18:34:10.531Z,4.10
2023-02-20T18:36:37.938Z,3.00
2023-02-20T18:39:05.344Z,2.77
2023-02-20T18:41:31.893Z,3.37
2023-02-20T18:43:58.485Z,3.23
2023-02-20T18:46:26.244Z,3.30
2023-02-20T18:48:52.802Z,3.10
2023-02-20T18:51:25.316Z,3.43
2023-02-20T18:53:52.267Z,2.50
2023-02-20T18:56:18.840Z,3.07
2023-02-20T18:58:45.322Z,2.93
2023-02-20T19:01:17.707Z,3.10
2023-02-20T19:03:44.288Z,2.43
2023-02-20T19:06:10.865Z,2.67
2023-02-20T19:08:37.497Z,2.60
2023-02-20T19:11:04.102Z,2.87
2023-02-20T19:13:30.626Z,2.70
2023-02-20T19:15:57.138Z,2.80
2023-02-20T19:18:23.654Z,2.53
2023-02-20T19:20:52.089Z,3.40
2023-02-20T19:23:19.560Z,2.60
2023-02-20T19:25:46.098Z,3.67
2023-02-20T19:28:12.814Z,3.97
2023-02-20T19:30:39.410Z,2.60
2023-02-20T19:33:05.945Z,2.77
2023-02-20T19:35:32.500Z,2.83
2023-02-20T19:37:59.108Z,2.50
2023-02-20T19:40:25.621Z,2.80
2023-02-20T19:42:52.139Z,3.10
2023-02-20T19:45:19.204Z,2.97
2023-02-20T19:47:45.978Z,3.33
2023-02-20T19:50:12.487Z,3.37
2023-02-20T19:52:40.782Z,3.00
2023-02-20T19:55:07.402Z,2.77
2023-02-20T19:57:33.932Z,3.10
2023-02-20T20:00:00.448Z,3.43
2023-02-20T20:02:27.156Z,3.10
2023-02-20T20:04:53.738Z,3.33
2023-02-20T20:07:20.304Z,3.30
2023-02-20T20:09:46.975Z,3.30
2023-02-20T20:12:32.305Z,2.90
2023-02-20T20:14:58.834Z,3.30
2023-02-20T20:17:25.380Z,2.90
2023-02-20T20:20:00.442Z,3.57
2023-02-20T20:22:30.812Z,3.03
2023-02-20T20:24:57.615Z,3.57
2023-02-20T20:27:24.185Z,3.13
2023-02-20T20:29:50.896Z,3.60
2023-02-20T20:32:17.661Z,3.13
2023-02-20T20:34:49.350Z,3.03
2023-02-20T20:37:16.290Z,4.00
2023-02-20T20:39:42.901Z,4.17
2023-02-20T20:42:09.771Z,3.27
2023-02-20T20:44:36.366Z,3.43
2023-02-20T20:47:04.037Z,3.63
2023-02-20T20:49:30.549Z,3.23
2023-02-20T20:51:57.142Z,3.87
2023-02-20T20:54:23.615Z,4.07
2023-02-20T20:56:50.839Z,4.33
2023-02-20T20:59:17.814Z,4.00
2023-02-20T21:01:44.867Z,3.73
2023-02-20T21:04:11.549Z,4.57
2023-02-20T21:06:38.077Z,6.07
2023-02-20T21:09:05.038Z,6.20
2023-02-20T21:11:33.152Z,4.13
2023-02-20T21:14:01.514Z,4.07
2023-02-20T21:16:28.022Z,4.13
2023-02-20T21:18:54.535Z,5.07
2023-02-20T21:21:28.058Z,3.80
2023-02-20T21:23:54.656Z,4.80
2023-02-20T21:26:21.138Z,4.47
2023-02-20T21:28:47.784Z,4.73
2023-02-20T21:31:15.425Z,4.57
2023-02-20T21:33:42.209Z,4.60
2023-02-20T21:36:08.760Z,4.80
2023-02-20T21:38:35.279Z,3.93
2023-02-20T21:41:02.315Z,3.57
2023-02-20T21:43:47.495Z,3.53
2023-02-20T21:46:14.017Z,3.38
2023-02-20T21:48:40.558Z,2.43
2023-02-20T21:51:07.121Z,3.23
2023-02-20T21:53:33.817Z,2.40
2023-02-20T21:56:00.485Z,2.20
2023-02-20T21:58:45.771Z,2.37
2023-02-20T22:01:12.582Z,1.73
2023-02-20T22:03:39.170Z,2.07
2023-02-20T22:06:05.686Z,2.17
2023-02-20T22:08:50.968Z,2.27
2023-02-20T22:11:36.317Z,2.50
2023-02-20T22:14:21.482Z,2.70
2023-02-20T22:17:06.700Z,2.03
2023-02-20T22:19:52.029Z,2.00
2023-02-20T22:22:37.356Z,2.10
2023-02-20T22:25:22.483Z,1.90
2023-02-20T22:28:07.858Z,2.00
2023-02-20T22:30:54.449Z,2.80
2023-02-20T22:33:39.958Z,3.50
2023-02-20T22:36:25.129Z,3.23
2023-02-20T22:39:10.292Z,2.67
2023-02-20T22:41:55.585Z,1.87
2023-02-20T22:44:42.069Z,2.50
2023-02-20T22:47:27.241Z,1.80
2023-02-20T22:50:12.429Z,1.33
2023-02-20T22:52:57.603Z,1.57
2023-02-20T22:55:42.966Z,1.40
2023-02-20T22:58:28.147Z,1.73
2023-02-20T23:01:13.950Z,2.13
2023-02-20T23:03:59.420Z,1.60
2023-02-20T23:06:44.678Z,1.37
2023-02-20T23:09:30.062Z,1.23
2023-02-20T23:12:15.223Z,1.53
2023-02-20T23:15:00.450Z,1.30
2023-02-20T23:17:45.724Z,1.43
2023-02-20T23:20:32.943Z,1.10
2023-02-20T23:23:18.312Z,1.23
2023-02-20T23:26:03.365Z,1.13
2023-02-20T23:28:48.719Z,1.40
2023-02-20T23:31:34.062Z,1.60
2023-02-20T23:34:19.397Z,1.03
2023-02-20T23:37:05.160Z,1.37
2023-02-20T23:39:50.206Z,1.37
2023-02-20T23:42:36.005Z,1.20
2023-02-20T23:45:21.418Z,1.03
2023-02-20T23:48:07.783Z,1.00
2023-02-20T23:50:53.065Z,0.97
2023-02-20T23:53:37.945Z,1.07
2023-02-20T23:56:23.758Z,1.27
2023-02-20T23:59:08.814Z,1.10
